Time;durP1;ratioP1;P1;durP2;ratioP2;P2;SDS_P1;SDS_P2;PMS_P1;PMS_P2;Temp;Humidity;BMP_temperature;BMP_pressure;BME280_temperature;BME280_humidity;BME280_pressure;Samples;Min_cycle;Max_cycle;Signal;HPM_P1;HPM_P2
2021/12/10 00:01:29;;;;;;;42.70;23.85;;;4.60;99.90;;;;;;5093678;28;20048;-80
2021/12/10 00:03:57;;;;;;;39.28;21.05;;;4.60;99.90;;;;;;5074892;28;20390;-80
2021/12/10 00:06:39;;;;;;;40.58;24.40;;;4.50;99.90;;;;;;5094447;28;20116;-80
2021/12/10 00:09:21;;;;;;;41.10;24.55;;;4.50;99.90;;;;;;5081603;28;20045;-80
2021/12/10 00:12:03;;;;;;;47.47;25.63;;;4.50;99.90;;;;;;5076018;28;20036;-80
2021/12/10 00:14:31;;;;;;;44.05;25.05;;;4.50;99.90;;;;;;5063118;28;20037;-80
2021/12/10 00:16:59;;;;;;;42.97;23.83;;;4.50;99.90;;;;;;5075827;28;20048;-80
2021/12/10 00:21:57;;;;;;;49.50;25.65;;;4.50;99.90;;;;;;5075908;28;20051;-80
2021/12/10 00:24:26;;;;;;;43.72;24.17;;;4.50;99.90;;;;;;5060240;28;20488;-80
2021/12/10 00:26:54;;;;;;;39.78;24.13;;;4.50;99.90;;;;;;5076576;28;20039;-80
2021/12/10 00:29:20;;;;;;;40.63;23.65;;;4.50;99.90;;;;;;5076137;28;20111;-80
2021/12/10 00:31:51;;;;;;;40.97;22.35;;;4.50;99.90;;;;;;5059902;28;20075;-80
2021/12/10 00:34:29;;;;;;;46.05;24.88;;;4.50;99.90;;;;;;5091953;28;20121;-79
2021/12/10 00:36:59;;;;;;;35.35;21.73;;;4.50;99.90;;;;;;5076442;28;20040;-79
2021/12/10 00:39:38;;;;;;;44.13;24.45;;;4.50;99.90;;;;;;5091123;28;20115;-80
2021/12/10 00:42:07;;;;;;;46.97;24.40;;;4.50;99.90;;;;;;5093584;28;20040;-80
2021/12/10 00:44:32;;;;;;;42.55;23.80;;;4.50;99.90;;;;;;5091355;28;20068;-80
2021/12/10 00:46:59;;;;;;;42.83;24.83;;;4.50;99.90;;;;;;5077446;28;20029;-80
2021/12/10 00:49:24;;;;;;;48.05;26.42;;;4.50;99.90;;;;;;5073822;28;20078;-80
2021/12/10 00:51:50;;;;;;;40.03;22.52;;;4.50;99.90;;;;;;5076190;28;20037;-80
2021/12/10 00:54:16;;;;;;;44.67;24.90;;;4.50;99.90;;;;;;5091484;28;20071;-79
2021/12/10 00:56:43;;;;;;;42.95;24.83;;;4.50;99.90;;;;;;5076269;28;20083;-80
2021/12/10 00:59:13;;;;;;;43.92;26.40;;;4.50;99.90;;;;;;5091888;28;20040;-80
2021/12/10 01:01:40;;;;;;;44.03;25.15;;;4.50;99.90;;;;;;5091525;28;20048;-80
2021/12/10 01:04:18;;;;;;;41.97;24.90;;;4.60;99.90;;;;;;5074887;28;20040;-80
2021/12/10 01:06:46;;;;;;;44.05;24.00;;;4.50;99.90;;;;;;5074086;28;20056;-80
2021/12/10 01:09:16;;;;;;;39.95;22.38;;;4.50;99.90;;;;;;5077110;28;20069;-80
2021/12/10 01:11:49;;;;;;;43.35;25.13;;;4.50;99.90;;;;;;5073648;28;20048;-80
2021/12/10 01:14:39;;;;;;;46.83;25.27;;;4.50;99.90;;;;;;5076970;28;20087;-79
2021/12/10 01:25:39;;;;;;;39.53;23.05;;;4.60;99.90;;;;;;5073657;28;20032;-80
2021/12/10 01:28:08;;;;;;;41.38;22.45;;;4.50;99.90;;;;;;5092673;28;20056;-80
2021/12/10 01:30:38;;;;;;;38.25;20.70;;;4.60;99.90;;;;;;5071155;28;20088;-80
2021/12/10 01:33:10;;;;;;;35.05;19.58;;;4.50;99.90;;;;;;5103579;28;20051;-79
2021/12/10 01:35:48;;;;;;;32.17;19.15;;;4.50;99.90;;;;;;5108249;28;20036;-77
2021/12/10 01:38:15;;;;;;;33.40;18.73;;;4.60;99.90;;;;;;5085950;28;20098;-80
2021/12/10 01:40:44;;;;;;;33.22;19.58;;;4.50;99.90;;;;;;5108716;28;20040;-78
2021/12/10 01:43:22;;;;;;;33.42;18.88;;;4.60;99.90;;;;;;5108460;28;20036;-81
2021/12/10 01:45:48;;;;;;;28.33;17.92;;;4.60;99.90;;;;;;5107186;28;20036;-79
2021/12/10 01:48:43;;;;;;;33.20;16.98;;;4.60;99.90;;;;;;5102587;28;20521;-79
2021/12/10 01:51:12;;;;;;;33.65;18.88;;;4.60;99.90;;;;;;5084920;28;20056;-80
2021/12/10 01:53:41;;;;;;;31.10;18.85;;;4.60;99.90;;;;;;5086196;28;20044;-79
2021/12/10 01:56:14;;;;;;;24.58;16.35;;;4.60;99.90;;;;;;5086228;28;20049;-79
2021/12/10 01:58:40;;;;;;;26.13;16.05;;;4.50;99.90;;;;;;5085358;28;20040;-79
2021/12/10 02:01:14;;;;;;;31.90;17.63;;;4.50;99.90;;;;;;5085199;28;20040;-80
2021/12/10 02:03:41;;;;;;;25.27;16.25;;;4.40;99.90;;;;;;5085907;28;20104;-80
2021/12/10 02:06:07;;;;;;;28.23;15.20;;;4.50;99.90;;;;;;5084488;28;20041;-80
2021/12/10 02:08:34;;;;;;;28.33;16.58;;;4.50;99.90;;;;;;5084756;28;20025;-79
2021/12/10 02:11:00;;;;;;;22.83;15.25;;;4.50;99.90;;;;;;5100602;28;20051;-80
2021/12/10 02:13:27;;;;;;;29.67;14.40;;;4.50;99.90;;;;;;5085241;28;20044;-79
2021/12/10 02:15:53;;;;;;;31.88;15.98;;;4.50;99.90;;;;;;5102619;28;20514;-80
2021/12/10 02:18:20;;;;;;;22.35;12.57;;;4.50;99.90;;;;;;5071044;28;20081;-80
2021/12/10 02:20:50;;;;;;;24.38;13.07;;;4.50;99.90;;;;;;5086933;28;20052;-79
2021/12/10 02:23:17;;;;;;;22.27;13.88;;;4.50;99.90;;;;;;5104732;28;20059;-79
2021/12/10 02:25:43;;;;;;;20.50;12.85;;;4.50;99.90;;;;;;5085860;28;20529;-80
2021/12/10 02:28:11;;;;;;;27.15;14.13;;;4.50;99.90;;;;;;5086884;28;20036;-80
2021/12/10 02:30:39;;;;;;;27.58;13.77;;;4.50;99.90;;;;;;5085621;28;20052;-80
2021/12/10 02:33:04;;;;;;;31.48;14.00;;;4.50;99.90;;;;;;5087450;28;20036;-79
2021/12/10 02:35:30;;;;;;;25.95;13.15;;;4.50;99.90;;;;;;5088441;28;20037;-79
2021/12/10 02:37:57;;;;;;;22.42;13.02;;;4.50;99.90;;;;;;5087753;28;20048;-80
2021/12/10 02:40:25;;;;;;;25.73;13.93;;;4.50;99.90;;;;;;5067924;28;20412;-79
2021/12/10 02:42:51;;;;;;;20.40;11.50;;;4.50;99.90;;;;;;5084769;28;20040;-79
2021/12/10 02:45:20;;;;;;;20.25;11.20;;;4.50;99.90;;;;;;5102626;28;20050;-80
2021/12/10 02:47:47;;;;;;;22.55;11.98;;;4.50;99.90;;;;;;5100385;28;20037;-80
2021/12/10 02:50:15;;;;;;;20.65;11.90;;;4.50;99.90;;;;;;5103115;28;20083;-80
2021/12/10 02:52:41;;;;;;;21.80;13.27;;;4.40;99.90;;;;;;5100614;28;20032;-80
2021/12/10 02:55:10;;;;;;;19.85;11.77;;;4.40;99.90;;;;;;5067974;28;20382;-80
2021/12/10 02:57:37;;;;;;;20.98;12.88;;;4.40;99.90;;;;;;5066143;28;20051;-80
2021/12/10 03:00:14;;;;;;;20.60;12.32;;;4.40;99.90;;;;;;5068217;28;20417;-79
2021/12/10 03:02:40;;;;;;;25.05;13.55;;;4.40;99.90;;;;;;5082243;28;20439;-80
2021/12/10 03:05:08;;;;;;;22.95;11.90;;;4.40;99.90;;;;;;5085141;28;20044;-79
2021/12/10 03:07:36;;;;;;;18.83;11.35;;;4.40;99.90;;;;;;5065633;28;20074;-78
2021/12/10 03:10:03;;;;;;;27.25;12.80;;;4.40;99.90;;;;;;5084360;28;20505;-80
2021/12/10 03:12:31;;;;;;;19.80;9.93;;;4.40;99.90;;;;;;5081286;28;20036;-80
2021/12/10 03:14:57;;;;;;;19.88;11.23;;;4.40;99.90;;;;;;5100496;28;20052;-80
2021/12/10 03:17:27;;;;;;;24.88;12.40;;;4.40;99.90;;;;;;5081004;28;20047;-79
2021/12/10 03:19:54;;;;;;;19.02;10.40;;;4.40;99.90;;;;;;5099627;28;20037;-79
2021/12/10 03:22:20;;;;;;;18.25;11.52;;;4.40;99.90;;;;;;5098637;28;20047;-80
2021/12/10 03:24:46;;;;;;;24.55;11.82;;;4.50;99.90;;;;;;5098630;28;20451;-80
2021/12/10 03:27:14;;;;;;;21.75;11.88;;;4.40;99.90;;;;;;5099347;28;20089;-80
2021/12/10 03:29:43;;;;;;;22.27;12.48;;;4.50;99.90;;;;;;5064033;28;20028;-80
2021/12/10 03:32:13;;;;;;;23.05;13.82;;;4.40;99.90;;;;;;5082709;28;20051;-79
2021/12/10 03:34:39;;;;;;;21.25;12.85;;;4.40;99.90;;;;;;5096815;28;20048;-79
2021/12/10 03:37:05;;;;;;;28.05;15.10;;;4.50;99.90;;;;;;5072908;28;20378;-79
2021/12/10 03:39:31;;;;;;;28.35;15.32;;;4.40;99.90;;;;;;5042886;28;20112;-80
2021/12/10 03:41:58;;;;;;;22.13;12.23;;;4.40;99.90;;;;;;5079135;28;20445;-80
2021/12/10 03:44:24;;;;;;;25.33;14.00;;;4.40;99.90;;;;;;5059563;28;20033;-79
2021/12/10 03:46:51;;;;;;;22.63;13.10;;;4.40;99.90;;;;;;5056303;28;20481;-79
2021/12/10 03:49:17;;;;;;;27.48;14.50;;;4.50;99.90;;;;;;5062761;28;20059;-80
2021/12/10 03:51:43;;;;;;;26.40;14.98;;;4.40;99.90;;;;;;5081715;28;20044;-80
2021/12/10 03:54:10;;;;;;;22.30;14.10;;;4.40;99.90;;;;;;5078899;28;20099;-80
2021/12/10 03:56:37;;;;;;;27.80;13.98;;;4.50;99.90;;;;;;5064818;28;20507;-80
2021/12/10 03:59:07;;;;;;;25.63;13.50;;;4.40;99.90;;;;;;5079738;28;20075;-79
2021/12/10 04:01:36;;;;;;;28.85;15.25;;;4.40;99.90;;;;;;5080980;28;20048;-80
2021/12/10 04:04:05;;;;;;;22.30;12.70;;;4.50;99.90;;;;;;5079912;28;20032;-80
2021/12/10 04:06:31;;;;;;;22.65;16.15;;;4.50;99.90;;;;;;5078732;28;20103;-80
2021/12/10 04:08:58;;;;;;;25.52;15.50;;;4.50;99.90;;;;;;5081430;28;20090;-79
2021/12/10 04:11:25;;;;;;;29.52;16.75;;;4.50;99.90;;;;;;5078316;28;20094;-80
2021/12/10 04:13:53;;;;;;;26.63;15.75;;;4.50;99.90;;;;;;5098320;28;20103;-79
2021/12/10 04:16:21;;;;;;;27.65;17.48;;;4.40;99.90;;;;;;5095090;28;20389;-79
2021/12/10 04:18:52;;;;;;;26.92;16.70;;;4.40;99.90;;;;;;5081260;28;20052;-79
2021/12/10 04:21:19;;;;;;;30.58;18.13;;;4.40;99.90;;;;;;5061757;28;20086;-80
2021/12/10 04:23:45;;;;;;;28.13;16.88;;;4.40;99.90;;;;;;5081629;28;20032;-80
2021/12/10 04:26:12;;;;;;;29.77;17.13;;;4.40;99.90;;;;;;5060984;28;20045;-82
2021/12/10 04:28:39;;;;;;;30.42;17.38;;;4.30;99.90;;;;;;5097425;28;20040;-79
2021/12/10 04:31:04;;;;;;;29.15;17.23;;;4.40;99.90;;;;;;5060824;28;20378;-79
2021/12/10 04:33:30;;;;;;;29.38;18.52;;;4.30;99.90;;;;;;5079952;28;20052;-79
2021/12/10 04:35:58;;;;;;;29.25;17.40;;;4.30;99.90;;;;;;5076527;28;20052;-78
2021/12/10 04:38:27;;;;;;;28.23;18.58;;;4.20;99.90;;;;;;5078849;28;20040;-79
2021/12/10 04:40:56;;;;;;;26.88;18.83;;;4.30;99.90;;;;;;5095213;28;20405;-79
2021/12/10 04:43:23;;;;;;;31.83;19.58;;;4.20;99.90;;;;;;5095505;28;20516;-79
2021/12/10 04:45:55;;;;;;;35.13;19.15;;;4.20;99.90;;;;;;5079352;28;20040;-79
2021/12/10 04:48:21;;;;;;;28.23;19.17;;;4.10;99.90;;;;;;5095189;28;20041;-79
2021/12/10 04:50:47;;;;;;;34.85;19.25;;;4.00;99.90;;;;;;5080940;28;20076;-78
2021/12/10 04:53:13;;;;;;;30.02;19.52;;;4.10;99.90;;;;;;5078406;28;20040;-79
2021/12/10 04:55:40;;;;;;;29.63;20.02;;;4.00;99.90;;;;;;5096644;28;20097;-78
2021/12/10 04:58:07;;;;;;;29.98;19.88;;;4.00;99.90;;;;;;5093642;28;20048;-79
2021/12/10 05:00:43;;;;;;;32.55;21.83;;;4.00;99.90;;;;;;5069252;28;20045;-79
2021/12/10 05:03:11;;;;;;;34.88;22.35;;;3.90;99.90;;;;;;5057348;28;20521;-79
2021/12/10 05:05:38;;;;;;;33.78;21.48;;;3.80;99.90;;;;;;5095994;28;20040;-79
2021/12/10 05:08:05;;;;;;;34.17;21.52;;;3.70;99.90;;;;;;5056832;28;20458;-79
2021/12/10 05:10:31;;;;;;;32.65;19.92;;;3.70;99.90;;;;;;5059258;28;20045;-79
2021/12/10 05:12:56;;;;;;;30.52;19.35;;;3.60;99.90;;;;;;5056968;28;20072;-79
2021/12/10 05:15:30;;;;;;;29.25;18.25;;;3.60;99.90;;;;;;5042964;28;20065;-79
2021/12/10 05:17:57;;;;;;;30.00;18.92;;;3.50;99.90;;;;;;5075377;28;20056;-79
2021/12/10 05:20:27;;;;;;;28.88;16.52;;;3.50;99.90;;;;;;5094597;28;20052;-79
2021/12/10 05:22:53;;;;;;;31.20;17.00;;;3.40;99.90;;;;;;5062054;28;20037;-79
2021/12/10 05:25:19;;;;;;;25.65;15.88;;;3.30;99.90;;;;;;5076779;28;20036;-79
2021/12/10 05:27:46;;;;;;;26.17;15.73;;;3.30;99.90;;;;;;5060675;28;20036;-79
2021/12/10 05:30:15;;;;;;;26.30;16.70;;;3.40;99.90;;;;;;5092834;28;20055;-79
2021/12/10 05:32:41;;;;;;;22.77;15.65;;;3.40;99.90;;;;;;5062047;28;20492;-80
2021/12/10 05:35:07;;;;;;;24.88;16.40;;;3.50;99.90;;;;;;5093442;28;20051;-79
2021/12/10 05:37:34;;;;;;;24.10;15.85;;;3.40;99.90;;;;;;5094944;28;20488;-79
2021/12/10 05:39:59;;;;;;;28.35;17.50;;;3.40;99.90;;;;;;5075967;28;20111;-80
2021/12/10 05:42:25;;;;;;;24.67;17.08;;;3.40;99.90;;;;;;5079076;28;20457;-80
2021/12/10 05:44:54;;;;;;;28.25;16.65;;;3.30;99.90;;;;;;5077115;28;20083;-80
2021/12/10 05:47:20;;;;;;;26.40;16.65;;;3.30;99.90;;;;;;5079478;28;20043;-80
2021/12/10 05:49:46;;;;;;;30.45;19.70;;;3.20;99.90;;;;;;5064774;28;20032;-79
2021/12/10 05:52:11;;;;;;;28.37;17.27;;;3.10;99.90;;;;;;5096493;28;20071;-78
2021/12/10 05:54:37;;;;;;;28.52;17.48;;;3.00;99.90;;;;;;5096345;28;20048;-79
2021/12/10 05:57:04;;;;;;;25.88;17.67;;;3.00;99.90;;;;;;5096028;28;20040;-78
2021/12/10 05:59:31;;;;;;;25.65;16.35;;;2.90;99.90;;;;;;5112676;28;20044;-79
2021/12/10 06:01:58;;;;;;;26.60;17.08;;;2.90;99.90;;;;;;5095289;28;20221;-78
2021/12/10 06:04:27;;;;;;;23.60;15.75;;;2.80;99.90;;;;;;5079618;28;20052;-79
2021/12/10 06:06:54;;;;;;;22.93;15.93;;;2.70;99.90;;;;;;5094829;28;20040;-79
2021/12/10 06:09:20;;;;;;;24.97;17.43;;;2.60;99.90;;;;;;5085391;28;20040;-79
2021/12/10 06:11:46;;;;;;;24.23;17.80;;;2.60;99.90;;;;;;5084233;28;20028;-80
2021/12/10 06:14:11;;;;;;;23.57;16.03;;;2.50;99.90;;;;;;5068199;28;20096;-80
2021/12/10 06:16:37;;;;;;;22.73;15.17;;;2.40;99.90;;;;;;5067608;28;20040;-80
2021/12/10 06:19:04;;;;;;;24.53;15.77;;;2.40;99.90;;;;;;5084037;28;20037;-79
2021/12/10 06:21:30;;;;;;;25.60;15.27;;;2.40;99.90;;;;;;5065351;28;20550;-81
2021/12/10 06:23:56;;;;;;;19.40;13.40;;;2.30;99.90;;;;;;5067715;28;20124;-80
2021/12/10 06:26:22;;;;;;;24.27;15.50;;;2.20;99.90;;;;;;5082284;28;20408;-80
2021/12/10 06:28:48;;;;;;;23.53;14.70;;;2.20;99.90;;;;;;5083202;28;20037;-80
2021/12/10 06:31:17;;;;;;;22.13;14.00;;;2.20;99.90;;;;;;5065283;28;20408;-81
2021/12/10 06:33:43;;;;;;;21.67;13.50;;;2.20;99.90;;;;;;5065561;28;20064;-81
2021/12/10 06:36:12;;;;;;;20.27;13.20;;;2.20;99.90;;;;;;5080462;28;20041;-80
2021/12/10 06:38:38;;;;;;;19.57;12.23;;;2.10;99.90;;;;;;5064036;28;20056;-81
2021/12/10 06:41:04;;;;;;;19.57;12.10;;;2.10;99.90;;;;;;5081222;28;20036;-81
2021/12/10 06:43:30;;;;;;;17.70;12.07;;;2.00;99.90;;;;;;5096300;28;20040;-80
2021/12/10 06:45:55;;;;;;;20.27;11.53;;;2.00;99.90;;;;;;5064640;28;20563;-79
2021/12/10 06:48:24;;;;;;;22.50;12.57;;;1.90;99.90;;;;;;5097444;28;20443;-79
2021/12/10 06:50:54;;;;;;;19.73;12.43;;;1.90;99.90;;;;;;5081557;28;20112;-80
2021/12/10 06:53:21;;;;;;;21.97;12.67;;;1.90;99.90;;;;;;5077317;28;20641;-79
2021/12/10 06:55:48;;;;;;;17.87;11.17;;;1.90;99.90;;;;;;5061894;28;20463;-80
2021/12/10 06:58:15;;;;;;;17.93;11.30;;;1.80;99.90;;;;;;5060267;28;20119;-79
2021/12/10 07:00:53;;;;;;;22.20;13.30;;;1.80;99.90;;;;;;5082047;28;20037;-80
2021/12/10 07:03:22;;;;;;;23.23;10.73;;;1.80;99.90;;;;;;5082970;28;20067;-79
2021/12/10 07:05:49;;;;;;;23.13;13.03;;;1.70;99.90;;;;;;5070149;28;20115;-79
2021/12/10 07:08:16;;;;;;;20.20;11.87;;;1.70;99.90;;;;;;5062118;28;20048;-80
2021/12/10 07:10:42;;;;;;;19.67;11.27;;;1.70;99.90;;;;;;5083942;28;20040;-79
2021/12/10 07:13:08;;;;;;;21.87;12.00;;;1.70;99.90;;;;;;5082964;28;20112;-79
2021/12/10 07:15:38;;;;;;;18.97;11.10;;;1.60;99.90;;;;;;5068827;28;20397;-79
2021/12/10 07:18:04;;;;;;;19.93;12.47;;;1.60;99.90;;;;;;5083388;28;20131;-79
2021/12/10 07:20:30;;;;;;;20.30;12.00;;;1.50;99.90;;;;;;5083629;28;20104;-80
2021/12/10 07:22:56;;;;;;;25.37;12.77;;;1.50;99.90;;;;;;5083374;28;20075;-80
2021/12/10 07:25:21;;;;;;;22.70;12.40;;;1.40;99.90;;;;;;5065155;28;20032;-79
2021/12/10 07:27:48;;;;;;;24.30;13.07;;;1.40;99.90;;;;;;5083240;28;20051;-79
2021/12/10 07:30:15;;;;;;;22.10;11.90;;;1.40;99.90;;;;;;5064511;28;20488;-79
2021/12/10 07:32:41;;;;;;;19.07;11.50;;;1.40;99.90;;;;;;5083109;28;20468;-80
2021/12/10 07:35:08;;;;;;;22.33;11.43;;;1.40;99.90;;;;;;5096657;28;20040;-80
2021/12/10 07:37:35;;;;;;;22.10;12.50;;;1.40;99.90;;;;;;5081357;28;20036;-79
2021/12/10 07:40:01;;;;;;;18.13;11.67;;;1.40;99.90;;;;;;5078644;28;20044;-79
2021/12/10 07:42:26;;;;;;;23.33;11.90;;;1.30;99.90;;;;;;5082605;28;20064;-80
2021/12/10 07:44:54;;;;;;;20.87;12.30;;;1.30;99.90;;;;;;5079080;28;20493;-80
2021/12/10 07:47:21;;;;;;;22.97;12.00;;;1.30;99.90;;;;;;5082821;28;20125;-80
2021/12/10 07:49:47;;;;;;;21.53;12.13;;;1.30;99.90;;;;;;5080103;28;20037;-80
2021/12/10 07:52:22;;;;;;;22.13;11.13;;;1.30;99.90;;;;;;5063801;28;20048;-80
2021/12/10 07:54:48;;;;;;;20.30;10.73;;;1.30;99.90;;;;;;5063926;28;20126;-80
2021/12/10 07:57:16;;;;;;;19.13;11.43;;;1.40;99.90;;;;;;5080193;28;20365;-80
2021/12/10 07:59:43;;;;;;;19.07;11.47;;;1.40;99.90;;;;;;5096975;28;20346;-79
2021/12/10 08:02:08;;;;;;;22.23;12.23;;;1.50;99.90;;;;;;5095426;28;20043;-80
2021/12/10 08:04:34;;;;;;;18.43;12.30;;;1.50;99.90;;;;;;5079180;28;20460;-79
2021/12/10 08:07:00;;;;;;;18.27;10.57;;;1.50;99.90;;;;;;5078276;28;20104;-80
2021/12/10 08:09:25;;;;;;;17.23;9.67;;;1.50;99.90;;;;;;5079321;28;20412;-79
2021/12/10 08:11:51;;;;;;;17.43;11.00;;;1.50;99.90;;;;;;5079870;28;20041;-80
2021/12/10 08:14:17;;;;;;;19.00;10.27;;;1.50;99.90;;;;;;5059625;28;21370;-80
2021/12/10 08:16:43;;;;;;;18.20;10.80;;;1.40;99.90;;;;;;5061131;28;20497;-80
2021/12/10 08:19:12;;;;;;;17.30;10.23;;;1.50;99.90;;;;;;5062921;28;20044;-80
2021/12/10 08:21:38;;;;;;;14.03;9.33;;;1.40;99.90;;;;;;5094162;28;20033;-80
2021/12/10 08:24:05;;;;;;;17.00;10.60;;;1.40;99.90;;;;;;5098487;28;20493;-80
2021/12/10 08:26:31;;;;;;;17.20;9.50;;;1.50;99.90;;;;;;5092990;28;20044;-80
2021/12/10 08:28:56;;;;;;;14.43;9.47;;;1.50;99.90;;;;;;5078647;28;20033;-80
2021/12/10 08:31:22;;;;;;;18.07;10.60;;;1.50;99.90;;;;;;5093248;28;20037;-80
2021/12/10 08:33:49;;;;;;;17.37;10.47;;;1.50;99.90;;;;;;5095468;28;20128;-80
2021/12/10 08:36:18;;;;;;;15.17;8.87;;;1.50;99.90;;;;;;5059875;28;20044;-80
2021/12/10 08:38:44;;;;;;;14.50;8.80;;;1.50;99.90;;;;;;5061486;28;20051;-80
2021/12/10 08:41:24;;;;;;;18.90;9.17;;;1.60;99.90;;;;;;5079365;28;20335;-80
2021/12/10 08:43:50;;;;;;;17.73;8.60;;;1.60;99.90;;;;;;5077740;28;20036;-80
2021/12/10 08:46:17;;;;;;;20.97;8.53;;;1.60;99.90;;;;;;5077670;28;20556;-80
2021/12/10 08:48:43;;;;;;;20.50;10.03;;;1.70;99.90;;;;;;5093447;28;20036;-80
2021/12/10 08:51:24;;;;;;;21.90;9.73;;;1.80;99.90;;;;;;5078007;28;20051;-80
2021/12/10 08:53:50;;;;;;;15.90;8.77;;;1.80;99.90;;;;;;5076451;28;20045;-80
2021/12/10 08:56:16;;;;;;;13.60;8.70;;;2.00;99.90;;;;;;5071224;28;20094;-81
2021/12/10 08:58:42;;;;;;;15.67;7.80;;;2.00;99.90;;;;;;5075407;28;20393;-81
2021/12/10 09:01:18;;;;;;;15.10;8.60;;;2.10;99.90;;;;;;5072855;28;20059;-81
2021/12/10 09:03:48;;;;;;;14.47;8.20;;;2.10;99.90;;;;;;5073633;28;20045;-80
2021/12/10 09:06:14;;;;;;;13.17;8.00;;;2.20;99.90;;;;;;5094436;28;20036;-80
2021/12/10 09:08:40;;;;;;;16.70;10.23;;;2.30;99.90;;;;;;5092700;28;20036;-81
2021/12/10 09:11:08;;;;;;;16.40;8.57;;;2.30;99.90;;;;;;5060556;28;20104;-80
2021/12/10 09:13:34;;;;;;;17.97;9.73;;;2.40;99.90;;;;;;5059488;28;20551;-81
2021/12/10 09:16:04;;;;;;;29.67;16.37;;;2.50;99.90;;;;;;5076285;28;20040;-80
2021/12/10 09:18:29;;;;;;;24.83;14.73;;;2.60;99.90;;;;;;5061038;28;20036;-80
2021/12/10 09:20:59;;;;;;;20.13;11.30;;;2.70;99.90;;;;;;5076378;28;20123;-81
2021/12/10 09:23:27;;;;;;;15.73;7.87;;;2.70;99.90;;;;;;5061394;28;20049;-80
2021/12/10 09:25:58;;;;;;;15.40;6.90;;;2.80;99.90;;;;;;5093642;28;20564;-81
2021/12/10 09:28:25;;;;;;;11.77;7.00;;;2.90;99.90;;;;;;5078344;28;20039;-81
2021/12/10 09:30:54;;;;;;;15.33;8.47;;;2.90;99.90;;;;;;5075446;28;20040;-82
2021/12/10 09:33:21;;;;;;;14.17;7.03;;;3.00;99.90;;;;;;5094250;28;20618;-81
2021/12/10 09:35:47;;;;;;;10.33;6.50;;;3.10;99.90;;;;;;5074123;28;20130;-82
2021/12/10 09:38:14;;;;;;;13.73;6.57;;;3.20;99.90;;;;;;5077856;28;20063;-81
2021/12/10 09:40:42;;;;;;;11.30;6.63;;;3.20;99.90;;;;;;5077142;28;20149;-82
2021/12/10 09:43:11;;;;;;;12.60;6.47;;;3.30;99.90;;;;;;5077608;28;20040;-81
2021/12/10 09:45:40;;;;;;;9.07;5.90;;;3.40;99.90;;;;;;5058810;28;20040;-81
2021/12/10 09:48:09;;;;;;;10.18;5.38;;;3.40;99.90;;;;;;5060642;28;20064;-81
2021/12/10 09:50:41;;;;;;;8.73;5.28;;;3.50;99.90;;;;;;5076839;28;20439;-82
2021/12/10 09:53:08;;;;;;;8.50;5.17;;;3.60;99.90;;;;;;5075362;28;20040;-81
2021/12/10 09:55:34;;;;;;;9.20;5.82;;;3.70;99.90;;;;;;5092059;28;20041;-82
2021/12/10 09:58:00;;;;;;;7.38;4.75;;;3.70;99.90;;;;;;5089886;28;20036;-81
2021/12/10 10:00:38;;;;;;;10.80;5.28;;;3.80;99.90;;;;;;5076258;28;20033;-81
2021/12/10 10:03:06;;;;;;;7.68;4.57;;;3.80;99.90;;;;;;5057786;28;20057;-82
2021/12/10 10:05:33;;;;;;;8.80;4.93;;;3.90;99.90;;;;;;5077083;28;20036;-81
2021/12/10 10:08:03;;;;;;;9.13;4.35;;;4.00;99.90;;;;;;5073594;28;20405;-82
2021/12/10 10:10:30;;;;;;;11.23;6.75;;;4.10;99.90;;;;;;5075188;28;20140;-81
2021/12/10 10:12:57;;;;;;;18.52;9.52;;;4.10;99.90;;;;;;5074257;28;20047;-82
2021/12/10 10:15:28;;;;;;;15.43;6.45;;;4.10;99.90;;;;;;5075386;28;20040;-81
2021/12/10 10:17:57;;;;;;;6.00;3.75;;;4.20;99.90;;;;;;5091643;28;20037;-82
2021/12/10 10:20:24;;;;;;;8.20;5.15;;;4.30;99.90;;;;;;5093066;28;20032;-82
2021/12/10 10:22:50;;;;;;;19.02;7.50;;;4.40;99.90;;;;;;5073368;28;20036;-82
2021/12/10 10:25:19;;;;;;;12.40;6.97;;;4.60;99.90;;;;;;5090334;28;20029;-82
2021/12/10 10:27:46;;;;;;;17.75;7.97;;;4.80;99.90;;;;;;5072868;28;20049;-82
2021/12/10 10:30:25;;;;;;;5.38;3.55;;;5.00;99.90;;;;;;5075013;28;20086;-81
2021/12/10 10:32:53;;;;;;;5.93;2.90;;;5.30;99.90;;;;;;5075204;28;20064;-81
2021/12/10 10:35:23;;;;;;;7.63;3.10;;;5.50;99.90;;;;;;5074681;28;20078;-81
2021/12/10 10:37:50;;;;;;;5.88;3.47;;;5.60;99.90;;;;;;5093939;28;20467;-82
2021/12/10 10:40:22;;;;;;;5.03;3.60;;;5.60;99.90;;;;;;5094747;28;20127;-82
2021/12/10 10:42:49;;;;;;;5.72;3.45;;;5.70;99.90;;;;;;5080431;28;20075;-81
2021/12/10 10:45:20;;;;;;;6.63;3.25;;;5.80;99.90;;;;;;5058707;28;20029;-83
2021/12/10 10:47:47;;;;;;;4.65;3.15;;;5.80;99.90;;;;;;5049094;28;20492;-82
2021/12/10 10:50:26;;;;;;;5.80;2.83;;;5.80;99.90;;;;;;5094142;28;20520;-82
2021/12/10 10:52:56;;;;;;;4.38;2.92;;;5.90;99.90;;;;;;5078812;28;20475;-82
2021/12/10 10:55:29;;;;;;;6.20;3.55;;;5.90;99.90;;;;;;5068183;28;20098;-81
2021/12/10 10:58:12;;;;;;;8.60;3.38;;;6.00;99.90;;;;;;5076176;28;20499;-81
2021/12/10 11:00:49;;;;;;;6.25;3.00;;;6.10;99.90;;;;;;5058766;28;20036;-81
2021/12/10 11:03:21;;;;;;;5.35;2.88;;;6.10;99.90;;;;;;5076838;28;20136;-81
2021/12/10 11:05:58;;;;;;;5.85;2.35;;;6.20;99.90;;;;;;5078905;28;20047;-82
2021/12/10 11:08:26;;;;;;;6.38;2.80;;;6.30;99.90;;;;;;5078294;28;20068;-81
2021/12/10 11:10:52;;;;;;;4.35;2.88;;;6.40;99.90;;;;;;5078854;28;20083;-81
2021/12/10 11:13:21;;;;;;;5.15;2.10;;;6.40;99.90;;;;;;5095061;28;20037;-81
2021/12/10 11:15:59;;;;;;;4.03;2.80;;;6.40;99.90;;;;;;5081095;28;20051;-81
2021/12/10 11:18:26;;;;;;;5.00;2.60;;;6.40;99.90;;;;;;5060714;28;20052;-80
2021/12/10 11:20:52;;;;;;;5.38;1.80;;;6.40;99.90;;;;;;5080704;28;20064;-81
2021/12/10 11:23:24;;;;;;;5.45;2.08;;;6.50;99.90;;;;;;5115368;28;20063;-80
2021/12/10 11:25:53;;;;;;;3.85;2.10;;;6.50;99.90;;;;;;5098360;28;20142;-80
2021/12/10 11:28:24;;;;;;;4.53;2.13;;;6.60;99.90;;;;;;5098015;28;20023;-79
2021/12/10 11:31:02;;;;;;;7.40;3.22;;;6.70;99.90;;;;;;5114869;28;20028;-79
2021/12/10 11:33:34;;;;;;;11.02;4.85;;;6.80;99.90;;;;;;5081781;28;20036;-80
2021/12/10 11:36:12;;;;;;;10.10;5.88;;;6.90;99.90;;;;;;5097438;28;20041;-80
2021/12/10 11:38:38;;;;;;;22.45;12.63;;;7.00;99.90;;;;;;5092719;28;20505;-81
2021/12/10 11:41:27;;;;;;;13.65;5.53;;;7.20;99.90;;;;;;5068158;28;20054;-80
2021/12/10 11:44:18;;;;;;;5.95;3.55;;;7.30;99.90;;;;;;5102751;28;20037;-82
2021/12/10 11:47:12;;;;;;;5.93;2.50;;;7.40;99.90;;;;;;5100962;28;20079;-81
2021/12/10 11:49:39;;;;;;;5.65;2.20;;;7.40;99.90;;;;;;5101031;28;20060;-80
2021/12/10 11:52:25;;;;;;;6.07;2.53;;;7.50;99.90;;;;;;5102493;28;20382;-80
2021/12/10 11:54:59;;;;;;;5.72;2.30;;;7.60;99.90;;;;;;5083729;28;20032;-80
2021/12/10 11:57:33;;;;;;;4.78;1.65;;;7.80;99.90;;;;;;5100143;28;20068;-81
2021/12/10 12:00:14;;;;;;;5.03;2.60;;;7.90;99.90;;;;;;5084616;28;20040;-80
2021/12/10 12:02:55;;;;;;;4.97;2.40;;;7.90;99.90;;;;;;5083019;28;20036;-80
2021/12/10 12:05:27;;;;;;;4.55;2.33;;;8.00;99.90;;;;;;5070446;28;20116;-80
2021/12/10 12:07:55;;;;;;;6.18;2.60;;;8.00;99.90;;;;;;5060082;28;20037;-81
2021/12/10 12:10:28;;;;;;;5.05;2.25;;;8.10;99.90;;;;;;5081583;28;20044;-80
2021/12/10 12:12:55;;;;;;;4.10;1.73;;;8.20;99.90;;;;;;5083057;28;20044;-79
2021/12/10 12:15:24;;;;;;;4.75;1.88;;;8.30;99.90;;;;;;5100749;28;20041;-80
2021/12/10 12:18:14;;;;;;;5.55;1.55;;;8.50;99.90;;;;;;5098720;28;20043;-80
2021/12/10 12:20:52;;;;;;;7.05;1.95;;;8.60;99.90;;;;;;5082995;28;20400;-81
2021/12/10 12:26:20;;;;;;;7.55;2.35;;;8.40;99.90;;;;;;5082309;28;20041;-81
2021/12/10 12:29:08;;;;;;;4.50;1.88;;;8.10;99.90;;;;;;5086487;28;20033;-80
2021/12/10 12:31:40;;;;;;;8.57;1.80;;;7.80;99.90;;;;;;5077659;28;20040;-79
2021/12/10 12:34:32;;;;;;;4.10;1.65;;;7.60;99.90;;;;;;5111621;28;20025;-81
2021/12/10 12:37:00;;;;;;;3.70;2.53;;;7.20;99.90;;;;;;5090463;28;20051;-80
2021/12/10 12:39:43;;;;;;;5.65;2.33;;;6.90;99.90;;;;;;5111862;28;20041;-80
2021/12/10 12:42:23;;;;;;;7.75;1.92;;;6.70;99.90;;;;;;5078071;28;20037;-80
2021/12/10 12:44:55;;;;;;;7.80;3.05;;;6.50;99.90;;;;;;5076450;28;20111;-79
2021/12/10 12:47:36;;;;;;;4.32;1.92;;;6.40;99.90;;;;;;5087185;28;20036;-79
2021/12/10 12:50:05;;;;;;;5.07;3.10;;;6.20;99.90;;;;;;5104019;28;20067;-80
2021/12/10 12:52:37;;;;;;;9.07;5.53;;;6.10;99.90;;;;;;5087523;28;20227;-80
2021/12/10 12:55:10;;;;;;;14.18;6.43;;;5.90;99.90;;;;;;5069516;28;20032;-81
2021/12/10 12:57:59;;;;;;;13.23;7.60;;;5.80;99.90;;;;;;5084032;28;20123;-81
2021/12/10 13:00:28;;;;;;;10.57;6.32;;;5.70;99.90;;;;;;5078324;28;20036;-81
2021/12/10 13:03:00;;;;;;;78.68;40.35;;;5.50;99.90;;;;;;5085840;28;20127;-80
2021/12/10 13:05:41;;;;;;;11.18;5.80;;;5.40;99.90;;;;;;5103612;28;20024;-80
2021/12/10 13:08:27;;;;;;;18.92;11.18;;;5.30;99.90;;;;;;5088474;28;20041;-81